Accueil
METAR-TAF:

METAR-TAF

Aéroports :

Aéroport international Indira-Gandhi

New Delhi, Inde

latitude: 28-34N, longitude: 077-07E, altitude: 220 m

Observation

Le bulletin a été fait il y a 17 minutes, à 15:30 UTC
Vent 3 kt de ouest
Température 13°C
Humidité 72%
Pression 1020 hPa
Visibilité: 2000 m
Nuages épars à une hauteur de 10000 ft
fumée

METAR: VIDP 171530Z 28003KT 2000 FU SCT100 13/08 Q1020 NOSIG

Heure: 21:17 (15:47 UTC)

Prévision

Le bulletin a été fait il y a 1 heure et 47 minutes, à 14:00 UTC
Prévision valable du 17 à 15 UTC au 17 à 24 UTC
Vent kt de nord
Visibilité: 2000 m
Nuages épars à une hauteur de 10000 ft
fumée
Evoluant progressivement
du 17 à 19 UTC au 17 à 21 UTC
Visibilité: 1200 m
Quelques nuages à une hauteur de 10000 ft
brume

TAF: VIDP 171400Z 1715/1724 00000KT 2000 FU SCT100 BECMG 1719/1721 1200 BR FEW100

Observations et prévisions météorologiques de plus de 4000 aéroports (messages METAR et TAF).

Les stations disponibles sont représentées par des disques jaunes et rouges sur la carte.

Passer la souris dessus pour voir le nom de la station.

Cliquer dessus pour voir les observations et prévisions météorologiques.

Pour changer de carte: cliquez sur les boutons verts avec une croix noire pour zoomer, sur le bouton vert avec un tiret pour effectuer un zoom arrière, ou sur les flèches vertes pour les cartes adjacentes.


METAR-TAF: